San Juan Enterprise — WDD9563 — position and weather

sailwx.info

Track history (hours):
 
Tides and Currents Weather Stations Pressure Air Temp Water Temp Dewpoint Dewpoint Depression Visibility Wind Speed Wind Dir Waves Ship Positions

San Juan Enterprise

Owner: SAN JUAN MARINE FREIGHT CO LLC, ANACORTES, WA. More information available from US FCC via Universal Licensing System and Coast Guard Vessel Documentation Center.

Last reported at 2015-Aug-03 20:05 UTC. Time now 2015-Aug-03 21:23 UTC.
Position N 48°31' W 122°36'.

Length 30 m.

MMSI: 367313160.

Date/timePositionNaut miles runAvg speedWind from/ knotsBaromVisibWave heightAir tempDewpointWater temp
2015-Aug-03 20:05N 48°31' W 122°36'0 0.0
2015-Aug-03 18:15N 48°31' W 122°36'0 0.0
2015-Aug-03 17:30N 48°31' W 122°36'0 0.0
2015-Aug-03 16:29N 48°31' W 122°36'0 0.0
2015-Aug-03 15:29N 48°31' W 122°36'0 0.0
2015-Aug-03 14:18N 48°31' W 122°36'0 0.0
2015-Aug-03 13:29N 48°31' W 122°36'0 0.0
2015-Aug-03 12:17N 48°31' W 122°36'0 0.0
2015-Aug-03 11:05N 48°31' W 122°36'0 0.0
2015-Aug-03 10:29N 48°31' W 122°36'0 0.0
2015-Aug-03 09:23N 48°31' W 122°36'0 0.0
2015-Aug-03 08:23N 48°31' W 122°36'0 0.0
2015-Aug-03 06:29N 48°31' W 122°36'0 0.0
2015-Aug-03 05:29N 48°31' W 122°36'0 0.0
2015-Aug-03 01:29N 48°31' W 122°36'0 0.0
2015-Aug-03 00:11N 48°31' W 122°36'0 0.0
2015-Aug-02 12:29N 48°31' W 122°36'0 0.0
2015-Aug-02 10:23N 48°31' W 122°36'0 0.0
2015-Aug-02 09:29N 48°31' W 122°36'0 0.0
2015-Aug-02 08:29N 48°31' W 122°36'0 0.0
2015-Aug-02 07:29N 48°31' W 122°36'0 0.0
2015-Aug-02 06:29N 48°31' W 122°36'0 0.0
2015-Aug-02 05:29N 48°31' W 122°36'0 0.0
2015-Aug-02 04:23N 48°31' W 122°36'0 0.0
2015-Aug-01 22:11N 48°31' W 122°36'0 0.0
2015-Aug-01 13:23N 48°31' W 122°36'0 0.0
2015-Aug-01 12:29N 48°31' W 122°36'0 0.0
2015-Aug-01 11:29N 48°31' W 122°36'0 0.0
2015-Aug-01 10:29N 48°31' W 122°36'0 0.0
2015-Aug-01 09:29N 48°31' W 122°36'0 0.0
2015-Aug-01 08:29N 48°31' W 122°36'0 0.0
2015-Aug-01 07:29N 48°31' W 122°36'0 0.0
2015-Aug-01 06:17N 48°31' W 122°36'0 0.0
2015-Aug-01 05:29N 48°31' W 122°36'0 0.0
2015-Aug-01 04:29N 48°31' W 122°36'0 0.0
2015-Aug-01 03:29N 48°31' W 122°36'3 3.1
2015-Aug-01 02:33N 48°31' W 122°41'5 6.3
2015-Aug-01 01:50N 48°31' W 122°47'0 1.3
2015-Aug-01 01:33N 48°30' W 122°47'1 8.9
2015-Aug-01 01:25N 48°29' W 122°48'3 3.9
2015-Aug-01 00:33N 48°30' W 122°43'5 2.0
2015-Jul-31 22:10N 48°31' W 122°36'0 0.0
2015-Jul-31 21:21N 48°31' W 122°36'7 8.9
2015-Jul-31 20:33N 48°34' W 122°46'3 2.5
2015-Jul-31 19:33N 48°35' W 122°49'1 1.9
2015-Jul-31 18:59N 48°36' W 122°49'0 0.0
2015-Jul-31 18:33N 48°36' W 122°49'0 0.0
2015-Jul-31 18:19N 48°36' W 122°49'1 1.6
2015-Jul-31 17:33N 48°35' W 122°49'0 0.0
2015-Jul-31 16:59N 48°35' W 122°49'1 2.8
2015-Jul-31 16:33N 48°36' W 122°49'3 7.9
2015-Jul-31 16:14N 48°35' W 122°45'5 7.0
2015-Jul-31 15:33N 48°32' W 122°40'3 2.5
2015-Jul-31 14:31N 48°31' W 122°36'0 0.0
2015-Jul-31 13:19N 48°31' W 122°36'0 0.0
2015-Jul-31 12:13N 48°31' W 122°36'0 0.0
2015-Jul-31 09:25N 48°31' W 122°36'0 0.0
2015-Jul-31 08:31N 48°31' W 122°36'0 0.0
2015-Jul-31 07:31N 48°31' W 122°36'0 0.0
2015-Jul-31 06:31N 48°31' W 122°36'0 0.0
2015-Jul-31 05:31N 48°31' W 122°36'0 0.0
2015-Jul-31 04:25N 48°31' W 122°36'0 0.0
2015-Jul-31 02:25N 48°31' W 122°36'1 0.1
2015-Jul-30 21:14N 48°31' W 122°36'4 6.0
2015-Jul-30 20:33N 48°33' W 122°41'0 0.0
2015-Jul-30 19:30N 48°33' W 122°41'0 0.0
2015-Jul-30 18:33N 48°33' W 122°41'3 3.3
2015-Jul-30 17:32N 48°31' W 122°37'0 0.0
2015-Jul-30 16:33N 48°31' W 122°37'0 0.3
2015-Jul-30 15:26N 48°31' W 122°36'0 0.0
2015-Jul-30 14:32N 48°31' W 122°36'0 0.0
2015-Jul-30 13:32N 48°31' W 122°36'0 0.0
2015-Jul-30 12:32N 48°31' W 122°36'0 0.0
2015-Jul-30 11:32N 48°31' W 122°36'0 0.0
2015-Jul-30 10:32N 48°31' W 122°36'0 0.0
2015-Jul-30 09:32N 48°31' W 122°36'0 0.0
2015-Jul-30 08:32N 48°31' W 122°36'0 0.0
2015-Jul-30 07:26N 48°31' W 122°36'0 0.0
2015-Jul-30 06:32N 48°31' W 122°36'0 0.0
2015-Jul-30 05:32N 48°31' W 122°36'0 0.0
2015-Jul-30 04:14N 48°31' W 122°36'0 0.0
2015-Jul-30 03:26N 48°31' W 122°36'0 0.0
2015-Jul-29 20:08N 48°31' W 122°36'0 0.0
2015-Jul-29 19:26N 48°31' W 122°36'0 0.0
2015-Jul-29 18:26N 48°31' W 122°36'0 0.0
2015-Jul-29 15:32N 48°31' W 122°36'0 0.0
2015-Jul-29 14:26N 48°31' W 122°36'0 0.0
2015-Jul-29 13:32N 48°31' W 122°36'0 0.0
2015-Jul-29 12:32N 48°31' W 122°36'0 0.0
2015-Jul-29 11:26N 48°31' W 122°36'0 0.0
2015-Jul-29 10:32N 48°31' W 122°36'0 0.0
2015-Jul-29 09:29N 48°31' W 122°36'0 0.0
2015-Jul-29 08:32N 48°31' W 122°36'0 0.0
2015-Jul-29 07:26N 48°31' W 122°36'0 0.0
2015-Jul-29 06:26N 48°31' W 122°36'0 0.0
2015-Jul-29 05:32N 48°31' W 122°36'0 0.0
2015-Jul-29 04:32N 48°31' W 122°36'0 0.0
2015-Jul-29 03:32N 48°31' W 122°36'0 0.0
2015-Jul-29 02:32N 48°31' W 122°36'0 0.0
2015-Jul-29 01:32N 48°31' W 122°36'0 0.0
2015-Jul-29 00:26N 48°31' W 122°36'0 0.0
2015-Jul-28 23:20N 48°31' W 122°36'0 0.0
2015-Jul-28 22:32N 48°31' W 122°36'0 0.0
2015-Jul-28 21:29N 48°31' W 122°36'2 2.4
2015-Jul-28 20:32N 48°31' W 122°40'8 8.1
2015-Jul-28 19:33N 48°34' W 122°51'6 6.1
2015-Jul-28 18:33N 48°32' W 122°60'0 0.0
2015-Jul-28 17:33N 48°32' W 122°60'5 5.5
2015-Jul-28 16:33N 48°34' W 122°53'8 8.2
2015-Jul-28 15:33N 48°32' W 122°41'3 2.9
2015-Jul-28 14:29N 48°31' W 122°36'0 0.0
2015-Jul-28 13:29N 48°31' W 122°36'0 0.0
2015-Jul-28 12:29N 48°31' W 122°36'0 0.0
2015-Jul-28 11:29N 48°31' W 122°36'0 0.0
2015-Jul-28 10:29N 48°31' W 122°36'0 0.0
2015-Jul-28 09:29N 48°31' W 122°36'0 0.0
2015-Jul-28 08:29N 48°31' W 122°36'0 0.0
2015-Jul-28 07:29N 48°31' W 122°36'0 0.0
2015-Jul-28 06:29N 48°31' W 122°36'0 0.0
2015-Jul-28 05:29N 48°31' W 122°36'0 0.0
2015-Jul-28 04:29N 48°31' W 122°36'0 0.0
2015-Jul-28 03:23N 48°31' W 122°36'0 0.0
2015-Jul-28 02:29N 48°31' W 122°36'0 0.0
2015-Jul-28 01:29N 48°31' W 122°36'0 0.0
2015-Jul-28 00:29N 48°31' W 122°36'0 0.4
2015-Jul-27 23:33N 48°31' W 122°37'3 4.0
2015-Jul-27 22:42N 48°30' W 122°42'2 9.2
2015-Jul-27 22:31N 48°29' W 122°43'3 0.7
2015-Jul-27 18:07N 48°26' W 122°41'4 7.3
2015-Jul-27 17:33N 48°30' W 122°42'4 3.6
2015-Jul-27 16:33N 48°31' W 122°37'0 0.3
2015-Jul-27 15:29N 48°31' W 122°36'0 0.0
2015-Jul-27 14:23N 48°31' W 122°36'0 0.0
2015-Jul-27 13:29N 48°31' W 122°36'0 0.0
2015-Jul-27 12:29N 48°31' W 122°36'0 0.0
2015-Jul-27 11:29N 48°31' W 122°36'0 0.0
2015-Jul-27 10:29N 48°31' W 122°36'0 0.0
2015-Jul-27 08:29N 48°31' W 122°36'0 0.0
2015-Jul-27 07:29N 48°31' W 122°36'0 0.0
2015-Jul-27 06:29N 48°31' W 122°36'0 0.0
2015-Jul-27 05:29N 48°31' W 122°36'0 0.0
2015-Jul-27 04:29N 48°31' W 122°36'0 0.0
2015-Jul-27 03:23N 48°31' W 122°36'0 0.0
2015-Jul-27 02:29N 48°31' W 122°36'0 0.0
2015-Jul-27 01:29N 48°31' W 122°36'0 0.0
2015-Jul-27 00:23N 48°31' W 122°36'0 0.0
2015-Jul-26 23:23N 48°31' W 122°36'0 0.0
2015-Jul-26 22:23N 48°31' W 122°36'0 0.0
2015-Jul-26 21:23N 48°31' W 122°36'0 0.0
2015-Jul-26 20:29N 48°31' W 122°36'0 0.0
2015-Jul-26 19:29N 48°31' W 122°36'0 0.0
2015-Jul-26 18:29N 48°31' W 122°36'0 0.0
2015-Jul-26 17:29N 48°31' W 122°36'0 0.0
2015-Jul-26 16:29N 48°31' W 122°36'0 0.0
2015-Jul-26 15:28N 48°31' W 122°36'0 0.0
2015-Jul-26 14:29N 48°31' W 122°36'0 0.0
2015-Jul-26 13:29N 48°31' W 122°36'0 0.0
2015-Jul-26 12:28N 48°31' W 122°36'0 0.0
2015-Jul-26 11:29N 48°31' W 122°36'0 0.0
2015-Jul-26 10:28N 48°31' W 122°36'0 0.0
2015-Jul-26 09:28N 48°31' W 122°36'0 0.0
2015-Jul-26 08:28N 48°31' W 122°36'0 0.0
2015-Jul-26 07:22N 48°31' W 122°36'0 0.0
2015-Jul-26 06:28N 48°31' W 122°36'0 0.0
2015-Jul-26 05:28N 48°31' W 122°36'0 0.0
2015-Jul-26 04:28N 48°31' W 122°36'0 0.0
2015-Jul-26 03:28N 48°31' W 122°36'0 0.0
2015-Jul-26 02:28N 48°31' W 122°36'0 0.0
2015-Jul-26 01:28N 48°31' W 122°36'0 0.0
2015-Jul-26 00:28N 48°31' W 122°36'0 0.0
2015-Jul-25 23:28N 48°31' W 122°36'0 0.0
2015-Jul-25 22:28N 48°31' W 122°36'0 0.0
2015-Jul-25 21:28N 48°31' W 122°36'0 0.0
2015-Jul-25 20:28N 48°31' W 122°36'0 0.0
2015-Jul-25 19:28N 48°31' W 122°36'0 0.0
2015-Jul-25 18:28N 48°31' W 122°36'0 0.0
2015-Jul-25 17:28N 48°31' W 122°36'0 0.0
2015-Jul-25 16:28N 48°31' W 122°36'0 0.0
2015-Jul-25 15:28N 48°31' W 122°36'0 0.0
2015-Jul-25 14:28N 48°31' W 122°36'0 0.0
2015-Jul-25 13:22N 48°31' W 122°36'0 0.0
2015-Jul-25 12:28N 48°31' W 122°36'0 0.0
2015-Jul-25 11:28N 48°31' W 122°36'0 0.0
2015-Jul-25 10:28N 48°31' W 122°36'0 0.0
2015-Jul-25 09:28N 48°31' W 122°36'0 0.0
2015-Jul-25 08:28N 48°31' W 122°36'0 0.0
2015-Jul-25 07:28N 48°31' W 122°36'0 0.0
2015-Jul-25 06:28N 48°31' W 122°36'0 0.0
2015-Jul-25 05:22N 48°31' W 122°36'0 0.0
2015-Jul-25 04:28N 48°31' W 122°36'0 0.0
2015-Jul-25 03:16N 48°31' W 122°36'0 0.0
2015-Jul-25 02:28N 48°31' W 122°36'0 0.0
2015-Jul-25 01:28N 48°31' W 122°36'0 0.0
2015-Jul-25 00:28N 48°31' W 122°36'0 0.0
2015-Jul-24 23:28N 48°31' W 122°36'0 0.0
2015-Jul-24 22:28N 48°31' W 122°36'0 0.0
2015-Jul-24 21:28N 48°31' W 122°36'0 0.0
2015-Jul-24 20:32N 48°31' W 122°36'  
Track history (hours):
 
Tides and Currents Weather Stations Pressure Air Temp Water Temp Dewpoint Dewpoint Depression Visibility Wind Speed Wind Dir Waves Ship Positions

San Juan Enterprise

Owner: SAN JUAN MARINE FREIGHT CO LLC, ANACORTES, WA. More information available from US FCC via Universal Licensing System and Coast Guard Vessel Documentation Center.

Last reported at 2015-Aug-03 20:05 UTC. Time now 2015-Aug-03 21:23 UTC.
Position N 48°31' W 122°36'.

Length 30 m.

MMSI: 367313160.

Date/timePositionNaut miles runAvg speedWind from/ knotsBaromVisibWave heightAir tempDewpointWater temp
2015-Aug-03 20:05N 48°31' W 122°36'0 0.0
2015-Aug-03 18:15N 48°31' W 122°36'0 0.0
2015-Aug-03 17:30N 48°31' W 122°36'0 0.0
2015-Aug-03 16:29N 48°31' W 122°36'0 0.0
2015-Aug-03 15:29N 48°31' W 122°36'0 0.0
2015-Aug-03 14:18N 48°31' W 122°36'0 0.0
2015-Aug-03 13:29N 48°31' W 122°36'0 0.0
2015-Aug-03 12:17N 48°31' W 122°36'0 0.0
2015-Aug-03 11:05N 48°31' W 122°36'0 0.0
2015-Aug-03 10:29N 48°31' W 122°36'0 0.0
2015-Aug-03 09:23N 48°31' W 122°36'0 0.0
2015-Aug-03 08:23N 48°31' W 122°36'0 0.0
2015-Aug-03 06:29N 48°31' W 122°36'0 0.0
2015-Aug-03 05:29N 48°31' W 122°36'0 0.0
2015-Aug-03 01:29N 48°31' W 122°36'0 0.0
2015-Aug-03 00:11N 48°31' W 122°36'0 0.0
2015-Aug-02 12:29N 48°31' W 122°36'0 0.0
2015-Aug-02 10:23N 48°31' W 122°36'0 0.0
2015-Aug-02 09:29N 48°31' W 122°36'0 0.0
2015-Aug-02 08:29N 48°31' W 122°36'0 0.0
2015-Aug-02 07:29N 48°31' W 122°36'0 0.0
2015-Aug-02 06:29N 48°31' W 122°36'0 0.0
2015-Aug-02 05:29N 48°31' W 122°36'0 0.0
2015-Aug-02 04:23N 48°31' W 122°36'0 0.0
2015-Aug-01 22:11N 48°31' W 122°36'0 0.0
2015-Aug-01 13:23N 48°31' W 122°36'0 0.0
2015-Aug-01 12:29N 48°31' W 122°36'0 0.0
2015-Aug-01 11:29N 48°31' W 122°36'0 0.0
2015-Aug-01 10:29N 48°31' W 122°36'0 0.0
2015-Aug-01 09:29N 48°31' W 122°36'0 0.0
2015-Aug-01 08:29N 48°31' W 122°36'0 0.0
2015-Aug-01 07:29N 48°31' W 122°36'0 0.0
2015-Aug-01 06:17N 48°31' W 122°36'0 0.0
2015-Aug-01 05:29N 48°31' W 122°36'0 0.0
2015-Aug-01 04:29N 48°31' W 122°36'0 0.0
2015-Aug-01 03:29N 48°31' W 122°36'3 3.1
2015-Aug-01 02:33N 48°31' W 122°41'5 6.3
2015-Aug-01 01:50N 48°31' W 122°47'0 1.3
2015-Aug-01 01:33N 48°30' W 122°47'1 8.9
2015-Aug-01 01:25N 48°29' W 122°48'3 3.9
2015-Aug-01 00:33N 48°30' W 122°43'5 2.0
2015-Jul-31 22:10N 48°31' W 122°36'0 0.0
2015-Jul-31 21:21N 48°31' W 122°36'7 8.9
2015-Jul-31 20:33N 48°34' W 122°46'3 2.5
2015-Jul-31 19:33N 48°35' W 122°49'1 1.9
2015-Jul-31 18:59N 48°36' W 122°49'0 0.0
2015-Jul-31 18:33N 48°36' W 122°49'0 0.0
2015-Jul-31 18:19N 48°36' W 122°49'1 1.6
2015-Jul-31 17:33N 48°35' W 122°49'0 0.0
2015-Jul-31 16:59N 48°35' W 122°49'1 2.8
2015-Jul-31 16:33N 48°36' W 122°49'3 7.9
2015-Jul-31 16:14N 48°35' W 122°45'5 7.0
2015-Jul-31 15:33N 48°32' W 122°40'3 2.5
2015-Jul-31 14:31N 48°31' W 122°36'0 0.0
2015-Jul-31 13:19N 48°31' W 122°36'0 0.0
2015-Jul-31 12:13N 48°31' W 122°36'0 0.0
2015-Jul-31 09:25N 48°31' W 122°36'0 0.0
2015-Jul-31 08:31N 48°31' W 122°36'0 0.0
2015-Jul-31 07:31N 48°31' W 122°36'0 0.0
2015-Jul-31 06:31N 48°31' W 122°36'0 0.0
2015-Jul-31 05:31N 48°31' W 122°36'0 0.0
2015-Jul-31 04:25N 48°31' W 122°36'0 0.0
2015-Jul-31 02:25N 48°31' W 122°36'1 0.1
2015-Jul-30 21:14N 48°31' W 122°36'4 6.0
2015-Jul-30 20:33N 48°33' W 122°41'0 0.0
2015-Jul-30 19:30N 48°33' W 122°41'0 0.0
2015-Jul-30 18:33N 48°33' W 122°41'3 3.3
2015-Jul-30 17:32N 48°31' W 122°37'0 0.0
2015-Jul-30 16:33N 48°31' W 122°37'0 0.3
2015-Jul-30 15:26N 48°31' W 122°36'0 0.0
2015-Jul-30 14:32N 48°31' W 122°36'0 0.0
2015-Jul-30 13:32N 48°31' W 122°36'0 0.0
2015-Jul-30 12:32N 48°31' W 122°36'0 0.0
2015-Jul-30 11:32N 48°31' W 122°36'0 0.0
2015-Jul-30 10:32N 48°31' W 122°36'0 0.0
2015-Jul-30 09:32N 48°31' W 122°36'0 0.0
2015-Jul-30 08:32N 48°31' W 122°36'0 0.0
2015-Jul-30 07:26N 48°31' W 122°36'0 0.0
2015-Jul-30 06:32N 48°31' W 122°36'0 0.0
2015-Jul-30 05:32N 48°31' W 122°36'0 0.0
2015-Jul-30 04:14N 48°31' W 122°36'0 0.0
2015-Jul-30 03:26N 48°31' W 122°36'0 0.0
2015-Jul-29 20:08N 48°31' W 122°36'0 0.0
2015-Jul-29 19:26N 48°31' W 122°36'0 0.0
2015-Jul-29 18:26N 48°31' W 122°36'0 0.0
2015-Jul-29 15:32N 48°31' W 122°36'0 0.0
2015-Jul-29 14:26N 48°31' W 122°36'0 0.0
2015-Jul-29 13:32N 48°31' W 122°36'0 0.0
2015-Jul-29 12:32N 48°31' W 122°36'0 0.0
2015-Jul-29 11:26N 48°31' W 122°36'0 0.0
2015-Jul-29 10:32N 48°31' W 122°36'0 0.0
2015-Jul-29 09:29N 48°31' W 122°36'0 0.0
2015-Jul-29 08:32N 48°31' W 122°36'0 0.0
2015-Jul-29 07:26N 48°31' W 122°36'0 0.0
2015-Jul-29 06:26N 48°31' W 122°36'0 0.0
2015-Jul-29 05:32N 48°31' W 122°36'0 0.0
2015-Jul-29 04:32N 48°31' W 122°36'0 0.0
2015-Jul-29 03:32N 48°31' W 122°36'0 0.0
2015-Jul-29 02:32N 48°31' W 122°36'0 0.0
2015-Jul-29 01:32N 48°31' W 122°36'0 0.0
2015-Jul-29 00:26N 48°31' W 122°36'0 0.0
2015-Jul-28 23:20N 48°31' W 122°36'0 0.0
2015-Jul-28 22:32N 48°31' W 122°36'0 0.0
2015-Jul-28 21:29N 48°31' W 122°36'2 2.4
2015-Jul-28 20:32N 48°31' W 122°40'8 8.1
2015-Jul-28 19:33N 48°34' W 122°51'6 6.1
2015-Jul-28 18:33N 48°32' W 122°60'0 0.0
2015-Jul-28 17:33N 48°32' W 122°60'5 5.5
2015-Jul-28 16:33N 48°34' W 122°53'8 8.2
2015-Jul-28 15:33N 48°32' W 122°41'3 2.9
2015-Jul-28 14:29N 48°31' W 122°36'0 0.0
2015-Jul-28 13:29N 48°31' W 122°36'0 0.0
2015-Jul-28 12:29N 48°31' W 122°36'0 0.0
2015-Jul-28 11:29N 48°31' W 122°36'0 0.0
2015-Jul-28 10:29N 48°31' W 122°36'0 0.0
2015-Jul-28 09:29N 48°31' W 122°36'0 0.0
2015-Jul-28 08:29N 48°31' W 122°36'0 0.0
2015-Jul-28 07:29N 48°31' W 122°36'0 0.0
2015-Jul-28 06:29N 48°31' W 122°36'0 0.0
2015-Jul-28 05:29N 48°31' W 122°36'0 0.0
2015-Jul-28 04:29N 48°31' W 122°36'0 0.0
2015-Jul-28 03:23N 48°31' W 122°36'0 0.0
2015-Jul-28 02:29N 48°31' W 122°36'0 0.0
2015-Jul-28 01:29N 48°31' W 122°36'0 0.0
2015-Jul-28 00:29N 48°31' W 122°36'0 0.4
2015-Jul-27 23:33N 48°31' W 122°37'3 4.0
2015-Jul-27 22:42N 48°30' W 122°42'2 9.2
2015-Jul-27 22:31N 48°29' W 122°43'3 0.7
2015-Jul-27 18:07N 48°26' W 122°41'4 7.3
2015-Jul-27 17:33N 48°30' W 122°42'4 3.6
2015-Jul-27 16:33N 48°31' W 122°37'0 0.3
2015-Jul-27 15:29N 48°31' W 122°36'0 0.0
2015-Jul-27 14:23N 48°31' W 122°36'0 0.0
2015-Jul-27 13:29N 48°31' W 122°36'0 0.0
2015-Jul-27 12:29N 48°31' W 122°36'0 0.0
2015-Jul-27 11:29N 48°31' W 122°36'0 0.0
2015-Jul-27 10:29N 48°31' W 122°36'0 0.0
2015-Jul-27 08:29N 48°31' W 122°36'0 0.0
2015-Jul-27 07:29N 48°31' W 122°36'0 0.0
2015-Jul-27 06:29N 48°31' W 122°36'0 0.0
2015-Jul-27 05:29N 48°31' W 122°36'0 0.0
2015-Jul-27 04:29N 48°31' W 122°36'0 0.0
2015-Jul-27 03:23N 48°31' W 122°36'0 0.0
2015-Jul-27 02:29N 48°31' W 122°36'0 0.0
2015-Jul-27 01:29N 48°31' W 122°36'0 0.0
2015-Jul-27 00:23N 48°31' W 122°36'0 0.0
2015-Jul-26 23:23N 48°31' W 122°36'0 0.0
2015-Jul-26 22:23N 48°31' W 122°36'0 0.0
2015-Jul-26 21:23N 48°31' W 122°36'0 0.0
2015-Jul-26 20:29N 48°31' W 122°36'0 0.0
2015-Jul-26 19:29N 48°31' W 122°36'0 0.0
2015-Jul-26 18:29N 48°31' W 122°36'0 0.0
2015-Jul-26 17:29N 48°31' W 122°36'0 0.0
2015-Jul-26 16:29N 48°31' W 122°36'0 0.0
2015-Jul-26 15:28N 48°31' W 122°36'0 0.0
2015-Jul-26 14:29N 48°31' W 122°36'0 0.0
2015-Jul-26 13:29N 48°31' W 122°36'0 0.0
2015-Jul-26 12:28N 48°31' W 122°36'0 0.0
2015-Jul-26 11:29N 48°31' W 122°36'0 0.0
2015-Jul-26 10:28N 48°31' W 122°36'0 0.0
2015-Jul-26 09:28N 48°31' W 122°36'0 0.0
2015-Jul-26 08:28N 48°31' W 122°36'0 0.0
2015-Jul-26 07:22N 48°31' W 122°36'0 0.0
2015-Jul-26 06:28N 48°31' W 122°36'0 0.0
2015-Jul-26 05:28N 48°31' W 122°36'0 0.0
2015-Jul-26 04:28N 48°31' W 122°36'0 0.0
2015-Jul-26 03:28N 48°31' W 122°36'0 0.0
2015-Jul-26 02:28N 48°31' W 122°36'0 0.0
2015-Jul-26 01:28N 48°31' W 122°36'0 0.0
2015-Jul-26 00:28N 48°31' W 122°36'0 0.0
2015-Jul-25 23:28N 48°31' W 122°36'0 0.0
2015-Jul-25 22:28N 48°31' W 122°36'0 0.0
2015-Jul-25 21:28N 48°31' W 122°36'0 0.0
2015-Jul-25 20:28N 48°31' W 122°36'0 0.0
2015-Jul-25 19:28N 48°31' W 122°36'0 0.0
2015-Jul-25 18:28N 48°31' W 122°36'0 0.0
2015-Jul-25 17:28N 48°31' W 122°36'0 0.0
2015-Jul-25 16:28N 48°31' W 122°36'0 0.0
2015-Jul-25 15:28N 48°31' W 122°36'0 0.0
2015-Jul-25 14:28N 48°31' W 122°36'0 0.0
2015-Jul-25 13:22N 48°31' W 122°36'0 0.0
2015-Jul-25 12:28N 48°31' W 122°36'0 0.0
2015-Jul-25 11:28N 48°31' W 122°36'0 0.0
2015-Jul-25 10:28N 48°31' W 122°36'0 0.0
2015-Jul-25 09:28N 48°31' W 122°36'0 0.0
2015-Jul-25 08:28N 48°31' W 122°36'0 0.0
2015-Jul-25 07:28N 48°31' W 122°36'0 0.0
2015-Jul-25 06:28N 48°31' W 122°36'0 0.0
2015-Jul-25 05:22N 48°31' W 122°36'0 0.0
2015-Jul-25 04:28N 48°31' W 122°36'0 0.0
2015-Jul-25 03:16N 48°31' W 122°36'0 0.0
2015-Jul-25 02:28N 48°31' W 122°36'0 0.0
2015-Jul-25 01:28N 48°31' W 122°36'0 0.0
2015-Jul-25 00:28N 48°31' W 122°36'0 0.0
2015-Jul-24 23:28N 48°31' W 122°36'0 0.0
2015-Jul-24 22:28N 48°31' W 122°36'0 0.0
2015-Jul-24 21:28N 48°31' W 122°36'0 0.0
2015-Jul-24 20:32N 48°31' W 122°36'  

Dump ship's entire track history